Time;durP1;ratioP1;P1;durP2;ratioP2;P2;SDS_P1;SDS_P2;PMS_P1;PMS_P2;Temp;Humidity;BMP_temperature;BMP_pressure;BME280_temperature;BME280_humidity;BME280_pressure;Samples;Min_cycle;Max_cycle;Signal;HPM_P1;HPM_P2
2024/01/16 00:01:19;;;;;;;1.23;1.23;;;;;;;-0.90;78.86;96225.81;4967579;28;20039;-72
2024/01/16 00:03:48;;;;;;;1.02;1.02;;;;;;;-0.95;79.44;96221.06;4977618;28;20154;-72
2024/01/16 00:06:16;;;;;;;0.88;0.88;;;;;;;-0.96;79.69;96229.09;4977422;28;20047;-73
2024/01/16 00:08:44;;;;;;;0.40;0.40;;;;;;;-0.96;79.92;96235.13;4972899;28;20405;-73
2024/01/16 00:11:11;;;;;;;0.93;0.93;;;;;;;-0.95;79.95;96235.97;4972891;28;20055;-73
2024/01/16 00:13:39;;;;;;;0.30;0.30;;;;;;;-0.96;80.06;96234.31;4972922;28;20130;-73
2024/01/16 00:16:06;;;;;;;1.27;1.27;;;;;;;-0.98;80.06;96241.50;4972752;28;20058;-73
2024/01/16 00:18:35;;;;;;;1.10;1.10;;;;;;;-0.97;79.86;96243.16;4972071;28;20041;-72
2024/01/16 00:21:05;;;;;;;0.95;0.95;;;;;;;-0.97;79.66;96240.53;4972656;28;20046;-72
2024/01/16 00:23:32;;;;;;;1.08;1.08;;;;;;;-0.90;79.42;96252.00;4972928;28;20039;-72
2024/01/16 00:26:00;;;;;;;1.27;1.27;;;;;;;-0.91;79.00;96255.59;4973177;28;20065;-72
2024/01/16 00:28:28;;;;;;;1.02;1.02;;;;;;;-0.91;78.69;96255.59;4972840;28;20055;-72
2024/01/16 00:30:55;;;;;;;1.02;1.02;;;;;;;-0.92;78.85;96260.00;4972659;28;20038;-72
2024/01/16 00:33:23;;;;;;;1.15;1.15;;;;;;;-0.92;78.72;96267.03;4972854;28;20038;-72
2024/01/16 00:35:51;;;;;;;1.35;1.35;;;;;;;-0.85;78.37;96276.75;4972795;28;20106;-72
2024/01/16 00:38:20;;;;;;;0.98;0.98;;;;;;;-0.86;77.86;96263.81;4972544;28;20050;-72
2024/01/16 00:40:47;;;;;;;0.43;0.43;;;;;;;-0.83;77.57;96269.53;4975502;28;20458;-72
2024/01/16 00:43:15;;;;;;;0.95;0.95;;;;;;;-0.78;75.91;96274.31;4985800;28;20051;-72
2024/01/16 00:45:43;;;;;;;1.15;1.15;;;;;;;-0.65;73.97;96273.88;4955286;28;20051;-72
2024/01/16 00:48:13;;;;;;;1.10;1.10;;;;;;;-0.68;74.30;96282.88;4972514;28;20039;-72
2024/01/16 00:50:42;;;;;;;0.90;0.90;;;;;;;-0.69;75.42;96286.47;4964146;28;20047;-73
2024/01/16 00:53:09;;;;;;;0.93;0.93;;;;;;;-0.67;75.54;96276.66;4975003;28;20053;-73
2024/01/16 00:55:37;;;;;;;0.60;0.60;;;;;;;-0.75;75.73;96272.22;4972055;28;20046;-73
2024/01/16 00:58:05;;;;;;;1.00;1.00;;;;;;;-0.70;72.99;96273.53;4971950;28;20050;-73
2024/01/16 01:00:34;;;;;;;1.33;1.33;;;;;;;-0.67;73.16;96286.31;4972470;28;20051;-73
2024/01/16 01:03:03;;;;;;;0.85;0.85;;;;;;;-0.65;73.18;96285.19;4976513;28;20059;-73
2024/01/16 01:05:31;;;;;;;1.20;1.20;;;;;;;-0.66;72.96;96291.41;4962288;28;20050;-73
2024/01/16 01:07:59;;;;;;;1.13;1.13;;;;;;;-0.60;73.50;96288.13;4971642;28;20550;-72
2024/01/16 01:10:26;;;;;;;1.23;1.23;;;;;;;-0.63;74.15;96285.84;4977219;28;20077;-71
2024/01/16 01:12:55;;;;;;;0.88;0.88;;;;;;;-0.71;75.49;96277.94;4971710;28;20098;-74
2024/01/16 01:15:23;;;;;;;0.32;0.32;;;;;;;-0.68;75.89;96292.53;4970936;28;20413;-73
2024/01/16 01:17:51;;;;;;;0.88;0.88;;;;;;;-0.75;76.31;96287.94;4978131;28;20059;-72
2024/01/16 01:20:19;;;;;;;0.20;0.20;;;;;;;-0.78;76.75;96305.75;4967158;28;20467;-72
2024/01/16 01:22:47;;;;;;;0.88;0.88;;;;;;;-0.77;77.18;96295.13;4973589;28;20039;-73
2024/01/16 01:25:15;;;;;;;1.20;1.20;;;;;;;-0.79;76.96;96314.56;4989345;28;20512;-72
2024/01/16 01:27:43;;;;;;;1.02;1.02;;;;;;;-0.77;76.78;96312.63;4974646;28;20085;-72
2024/01/16 01:30:12;;;;;;;1.02;1.02;;;;;;;-0.81;77.54;96312.09;4965757;28;20054;-72
2024/01/16 01:32:40;;;;;;;0.38;0.38;;;;;;;-0.82;77.52;96304.41;4982714;28;20454;-73
2024/01/16 01:35:08;;;;;;;1.02;1.02;;;;;;;-0.81;77.32;96306.88;4968843;28;20046;-72
2024/01/16 01:37:36;;;;;;;1.10;1.10;;;;;;;-0.78;77.54;96313.59;4968995;28;20050;-72
2024/01/16 01:40:04;;;;;;;0.98;0.98;;;;;;;-0.84;77.62;96319.47;4960186;28;20051;-72
2024/01/16 01:42:31;;;;;;;0.95;0.95;;;;;;;-0.84;77.81;96320.31;4973589;28;20038;-72
2024/01/16 01:44:59;;;;;;;0.90;0.90;;;;;;;-0.87;77.71;96314.53;4982565;28;20080;-72
2024/01/16 01:47:28;;;;;;;0.30;0.30;;;;;;;-0.84;77.68;96330.78;4970634;28;20391;-72
2024/01/16 01:49:56;;;;;;;1.00;1.00;;;;;;;-0.84;77.73;96335.19;4980127;28;20043;-72
2024/01/16 01:52:23;;;;;;;1.15;1.15;;;;;;;-0.85;77.58;96331.75;4978383;28;20051;-72
2024/01/16 01:54:52;;;;;;;0.30;0.30;;;;;;;-0.83;77.82;96332.38;4984042;28;20053;-72
2024/01/16 01:57:19;;;;;;;0.25;0.25;;;;;;;-0.83;78.22;96335.00;4979193;28;20054;-72
2024/01/16 01:59:47;;;;;;;1.38;1.38;;;;;;;-0.80;77.92;96342.56;4972754;28;20047;-72
2024/01/16 02:02:16;;;;;;;0.40;0.40;;;;;;;-0.87;78.19;96338.94;4955388;28;20084;-72
2024/01/16 02:04:46;;;;;;;1.10;1.10;;;;;;;-0.88;78.36;96347.75;4973834;28;20038;-71
2024/01/16 02:07:15;;;;;;;0.40;0.40;;;;;;;-0.86;78.24;96352.84;4982337;28;20141;-72
2024/01/16 02:09:43;;;;;;;1.23;1.23;;;;;;;-0.85;78.24;96357.94;4974120;28;20050;-72
2024/01/16 02:12:11;;;;;;;1.10;1.10;;;;;;;-0.79;78.03;96362.53;4976928;28;20101;-72
2024/01/16 02:14:39;;;;;;;0.90;0.90;;;;;;;-0.79;78.54;96356.47;4983520;28;20126;-71
2024/01/16 02:17:06;;;;;;;0.85;0.85;;;;;;;-0.83;78.11;96366.44;4983139;28;20046;-71
2024/01/16 02:19:34;;;;;;;0.85;0.85;;;;;;;-0.80;78.25;96368.75;4980766;28;20050;-72
2024/01/16 02:22:05;;;;;;;1.08;1.08;;;;;;;-0.80;78.24;96365.31;4974752;28;20053;-72
2024/01/16 02:24:34;;;;;;;1.02;1.02;;;;;;;-0.81;78.39;96380.19;4974330;28;20047;-72
2024/01/16 02:27:02;;;;;;;0.75;0.75;;;;;;;-0.82;78.35;96380.34;4974251;28;20050;-73
2024/01/16 02:29:29;;;;;;;1.02;1.02;;;;;;;-0.81;78.44;96374.97;4972649;28;20061;-73
2024/01/16 02:31:57;;;;;;;0.80;0.80;;;;;;;-0.80;77.75;96368.75;4974593;28;20077;-72
2024/01/16 02:34:25;;;;;;;1.00;1.00;;;;;;;-0.73;77.04;96376.84;4974393;28;20038;-71
2024/01/16 02:36:52;;;;;;;1.73;1.73;;;;;;;-0.70;77.32;96383.53;4989808;28;20051;-72
2024/01/16 02:39:20;;;;;;;0.20;0.20;;;;;;;-0.76;77.70;96385.00;4975551;28;20414;-72
2024/01/16 02:41:49;;;;;;;0.77;0.77;;;;;;;-0.79;77.85;96382.66;4976197;28;20070;-71
2024/01/16 02:44:16;;;;;;;0.45;0.45;;;;;;;-0.73;78.16;96388.09;4982652;28;20429;-71
2024/01/16 02:46:44;;;;;;;1.30;1.30;;;;;;;-0.80;78.62;96383.66;4976555;28;20147;-71
2024/01/16 02:49:12;;;;;;;1.05;1.05;;;;;;;-0.83;79.09;96383.97;4981977;28;20061;-71
2024/01/16 02:51:39;;;;;;;0.98;0.98;;;;;;;-0.89;79.79;96389.81;4968025;28;20046;-71
2024/01/16 02:54:07;;;;;;;0.20;0.20;;;;;;;-0.92;80.02;96390.94;4973776;28;20458;-72
2024/01/16 02:56:35;;;;;;;0.82;0.82;;;;;;;-0.93;80.22;96388.47;4973341;28;20050;-72
2024/01/16 02:59:04;;;;;;;1.30;1.30;;;;;;;-0.96;80.36;96388.78;4978042;28;20050;-73
2024/01/16 03:01:31;;;;;;;1.25;1.25;;;;;;;-0.95;80.35;96388.63;4977785;28;20053;-73
2024/01/16 03:03:59;;;;;;;0.85;0.85;;;;;;;-0.94;80.10;96389.47;4976007;28;20490;-72
2024/01/16 03:06:28;;;;;;;1.08;1.08;;;;;;;-0.86;80.09;96395.56;4981813;28;20051;-73
2024/01/16 03:08:56;;;;;;;1.35;1.35;;;;;;;-0.92;80.21;96390.94;4991106;28;20042;-72
2024/01/16 03:11:24;;;;;;;1.13;1.13;;;;;;;-0.91;80.18;96394.38;4978360;28;20042;-73
2024/01/16 03:13:53;;;;;;;0.80;0.80;;;;;;;-0.93;80.55;96388.47;4982112;28;20502;-73
2024/01/16 03:16:22;;;;;;;0.88;0.88;;;;;;;-0.94;81.37;96397.31;4973765;28;20056;-73
2024/01/16 03:18:49;;;;;;;0.93;0.93;;;;;;;-1.04;81.74;96402.66;4981381;28;20486;-73
2024/01/16 03:21:17;;;;;;;0.10;0.10;;;;;;;-1.07;81.73;96394.28;4978882;28;20058;-73
2024/01/16 03:23:45;;;;;;;0.40;0.40;;;;;;;-1.08;81.98;96388.22;4973867;28;20392;-72
2024/01/16 03:26:14;;;;;;;0.30;0.30;;;;;;;-1.07;82.09;96404.75;4982238;28;20380;-72
2024/01/16 03:28:42;;;;;;;0.95;0.95;;;;;;;-1.08;82.21;96401.31;4982796;28;20053;-72
2024/01/16 03:31:09;;;;;;;0.40;0.40;;;;;;;-1.16;83.08;96396.00;4981713;28;20446;-72
2024/01/16 03:33:41;;;;;;;1.23;1.23;;;;;;;-1.20;83.88;96395.47;4977869;28;20053;-71
2024/01/16 03:36:11;;;;;;;0.77;0.77;;;;;;;-1.19;83.55;96410.22;4972792;28;20046;-72
2024/01/16 03:38:38;;;;;;;0.88;0.88;;;;;;;-1.25;84.81;96402.97;4990081;28;20045;-72
2024/01/16 03:41:06;;;;;;;1.02;1.02;;;;;;;-1.28;84.82;96394.59;4984144;28;20046;-72
2024/01/16 03:43:35;;;;;;;1.10;1.10;;;;;;;-1.31;84.25;96406.19;4978302;28;20042;-72
2024/01/16 03:46:03;;;;;;;0.20;0.20;;;;;;;-1.26;83.79;96400.50;4975858;28;20799;-71
2024/01/16 03:48:31;;;;;;;0.32;0.32;;;;;;;-1.27;84.24;96399.69;4975141;28;20355;-72
2024/01/16 03:51:00;;;;;;;0.30;0.30;;;;;;;-1.23;83.69;96410.66;4980716;28;20447;-72
2024/01/16 03:53:27;;;;;;;1.23;1.23;;;;;;;-1.25;84.22;96410.00;4971043;28;20039;-71
2024/01/16 03:55:55;;;;;;;0.20;0.20;;;;;;;-1.25;83.89;96420.47;4968675;28;20521;-71
2024/01/16 03:58:23;;;;;;;0.20;0.20;;;;;;;-1.24;83.57;96424.72;4972698;28;20417;-74
2024/01/16 04:00:53;;;;;;;0.30;0.30;;;;;;;-1.22;83.52;96428.81;4974143;28;20457;-74
2024/01/16 04:03:20;;;;;;;0.95;0.95;;;;;;;-1.22;83.04;96434.06;4968700;28;20141;-72
2024/01/16 04:05:48;;;;;;;0.88;0.88;;;;;;;-1.20;83.59;96445.19;4971691;28;20132;-72
2024/01/16 04:08:17;;;;;;;0.75;0.75;;;;;;;-1.30;84.41;96433.16;4967856;28;20047;-72
2024/01/16 04:10:45;;;;;;;1.10;1.10;;;;;;;-1.34;84.62;96448.34;4971706;28;20054;-72
2024/01/16 04:13:12;;;;;;;1.23;1.23;;;;;;;-1.36;85.29;96444.25;4977246;28;20050;-72
2024/01/16 04:15:40;;;;;;;1.08;1.08;;;;;;;-1.40;85.70;96443.72;4976479;28;20038;-71
2024/01/16 04:18:08;;;;;;;0.95;0.95;;;;;;;-1.39;86.16;96447.16;4985502;28;20121;-72
2024/01/16 04:20:34;;;;;;;0.30;0.30;;;;;;;-1.37;85.61;96445.22;4963852;28;20415;-74
2024/01/16 04:23:02;;;;;;;;;;;;;;;-1.34;84.49;96444.91;4968504;28;20127;-72
2024/01/16 04:25:31;;;;;;;0.77;0.77;;;;;;;-1.33;83.44;96439.53;4980733;28;19922;-72
2024/01/16 04:27:59;;;;;;;0.90;0.90;;;;;;;-1.26;82.75;96450.22;4984914;28;20046;-72
2024/01/16 04:30:29;;;;;;;1.13;1.13;;;;;;;-1.23;81.94;96445.50;4973399;28;20518;-72
2024/01/16 04:32:57;;;;;;;0.88;0.88;;;;;;;-1.21;82.15;96451.41;4971363;28;20174;-72
2024/01/16 04:35:25;;;;;;;1.23;1.23;;;;;;;-1.23;81.91;96444.66;4972455;28;20051;-72
2024/01/16 04:37:53;;;;;;;1.00;1.00;;;;;;;-1.22;82.09;96462.84;4981909;28;20085;-73
2024/01/16 04:40:21;;;;;;;1.08;1.08;;;;;;;-1.21;81.85;96464.50;4976797;28;20043;-72
2024/01/16 04:42:50;;;;;;;0.98;0.98;;;;;;;-1.22;81.85;96460.22;4971328;28;20050;-72
2024/01/16 04:45:18;;;;;;;1.10;1.10;;;;;;;-1.13;82.19;96463.75;4979739;28;20047;-73
2024/01/16 04:47:45;;;;;;;0.20;0.20;;;;;;;-1.20;82.60;96463.53;4979602;28;20069;-72
2024/01/16 04:50:13;;;;;;;0.88;0.88;;;;;;;-1.29;84.23;96466.22;4981316;28;20046;-72
2024/01/16 04:52:41;;;;;;;1.10;1.10;;;;;;;-1.33;85.71;96477.94;4986901;28;20034;-72
2024/01/16 04:55:08;;;;;;;0.20;0.20;;;;;;;-1.40;86.80;96476.91;4976350;28;20425;-72
2024/01/16 04:57:36;;;;;;;0.98;0.98;;;;;;;-1.41;86.94;96477.88;4966643;28;20054;-72
2024/01/16 05:00:06;;;;;;;0.93;0.93;;;;;;;-1.45;87.23;96487.78;4960499;28;20049;-72
2024/01/16 05:02:35;;;;;;;0.90;0.90;;;;;;;-1.44;87.04;96492.06;4974949;28;20116;-72
2024/01/16 05:05:03;;;;;;;0.85;0.85;;;;;;;-1.40;87.40;96484.75;4967319;28;20050;-72
2024/01/16 05:07:31;;;;;;;1.10;1.10;;;;;;;-1.42;87.16;96484.91;4974013;28;20117;-72
2024/01/16 05:09:58;;;;;;;0.95;0.95;;;;;;;-1.30;86.71;96481.09;4969734;28;20086;-73
2024/01/16 05:12:26;;;;;;;0.40;0.40;;;;;;;-1.29;86.72;96481.91;4979724;28;20387;-72
2024/01/16 05:14:54;;;;;;;0.80;0.80;;;;;;;-1.35;86.56;96487.75;4973500;28;20046;-73
2024/01/16 05:17:23;;;;;;;1.00;1.00;;;;;;;-1.35;85.79;96482.53;4981306;28;20073;-72
2024/01/16 05:19:51;;;;;;;1.15;1.15;;;;;;;-1.27;84.42;96493.88;4973766;28;20137;-74
2024/01/16 05:22:18;;;;;;;1.15;1.15;;;;;;;-1.23;82.35;96492.59;4960405;28;20060;-73
2024/01/16 05:24:46;;;;;;;0.70;0.70;;;;;;;-1.23;82.18;96497.84;4979022;28;20499;-73
2024/01/16 05:27:14;;;;;;;0.88;0.88;;;;;;;-1.20;81.30;96500.16;4976721;28;20587;-73
2024/01/16 05:29:42;;;;;;;0.95;0.95;;;;;;;-1.18;81.25;96505.25;4972997;28;20118;-72
2024/01/16 05:32:11;;;;;;;1.27;1.27;;;;;;;-1.24;81.48;96506.66;4974710;28;20042;-75
2024/01/16 05:34:40;;;;;;;1.23;1.23;;;;;;;-1.25;81.42;96510.28;4975881;28;20047;-72
2024/01/16 05:37:08;;;;;;;1.05;1.05;;;;;;;-1.17;80.92;96515.59;4978784;28;20507;-72
2024/01/16 05:39:37;;;;;;;0.43;0.43;;;;;;;-1.24;81.03;96514.50;4973074;28;20453;-72
2024/01/16 05:42:06;;;;;;;0.95;0.95;;;;;;;-1.27;81.49;96508.78;4975869;28;20105;-73
2024/01/16 05:44:33;;;;;;;1.02;1.02;;;;;;;-1.35;81.25;96503.47;4979896;28;20142;-74
2024/01/16 05:47:02;;;;;;;0.30;0.30;;;;;;;-1.43;81.66;96505.97;4980418;28;20043;-73
2024/01/16 05:49:29;;;;;;;0.90;0.90;;;;;;;-1.45;82.07;96513.16;4981950;28;20042;-73
2024/01/16 05:51:58;;;;;;;0.63;0.63;;;;;;;-1.48;82.10;96524.75;4974687;28;20407;-73
2024/01/16 05:54:26;;;;;;;1.17;1.17;;;;;;;-1.55;82.05;96519.25;4968003;28;20522;-73
2024/01/16 05:56:53;;;;;;;0.85;0.85;;;;;;;-1.59;82.11;96524.94;4976270;28;20054;-73
2024/01/16 05:59:21;;;;;;;0.80;0.80;;;;;;;-1.59;81.65;96519.72;4973440;28;20051;-73
2024/01/16 06:01:50;;;;;;;0.60;0.60;;;;;;;-1.50;81.37;96524.06;4964808;28;20507;-74
2024/01/16 06:04:18;;;;;;;0.80;0.80;;;;;;;-1.54;80.94;96528.75;4974994;28;20042;-73
2024/01/16 06:06:47;;;;;;;1.00;1.00;;;;;;;-1.63;81.37;96534.03;4975474;28;20050;-73
2024/01/16 06:09:16;;;;;;;0.35;0.35;;;;;;;-1.68;81.58;96537.09;4972423;28;20386;-73
2024/01/16 06:11:44;;;;;;;1.13;1.13;;;;;;;-1.70;81.67;96539.03;4977032;28;20512;-73
2024/01/16 06:14:12;;;;;;;1.10;1.10;;;;;;;-1.56;80.91;96537.72;4973395;28;20045;-73
2024/01/16 06:16:40;;;;;;;1.00;1.00;;;;;;;-1.69;81.07;96527.59;4972872;28;20043;-73
2024/01/16 06:19:08;;;;;;;0.30;0.30;;;;;;;-1.69;81.04;96532.00;4979119;28;20165;-73
2024/01/16 06:21:36;;;;;;;1.02;1.02;;;;;;;-1.72;81.08;96532.28;4979384;28;20046;-73
2024/01/16 06:24:03;;;;;;;0.43;0.43;;;;;;;-1.72;81.34;96538.34;4981353;28;20046;-73
2024/01/16 06:26:33;;;;;;;0.55;0.55;;;;;;;-1.66;80.98;96529.13;4971307;28;20450;-73
2024/01/16 06:29:01;;;;;;;0.77;0.77;;;;;;;-1.65;80.54;96528.94;4976298;28;20521;-72
2024/01/16 06:31:28;;;;;;;0.35;0.35;;;;;;;-1.58;80.57;96534.44;4981447;28;20043;-73
2024/01/16 06:33:56;;;;;;;0.70;0.70;;;;;;;-1.66;80.12;96532.53;4983074;28;20053;-73
2024/01/16 06:36:24;;;;;;;1.48;1.48;;;;;;;-1.59;80.17;96532.78;4978656;28;20051;-73
2024/01/16 06:38:52;;;;;;;0.80;0.80;;;;;;;-1.70;80.68;96541.66;4970827;28;20043;-73
2024/01/16 06:41:20;;;;;;;0.60;0.60;;;;;;;-1.78;81.03;96538.13;4976991;28;20046;-73
2024/01/16 06:43:49;;;;;;;1.25;1.25;;;;;;;-1.83;80.95;96545.56;4975706;28;20042;-73
2024/01/16 06:46:17;;;;;;;1.20;1.20;;;;;;;-1.84;81.19;96542.13;4980572;28;20050;-73
2024/01/16 06:48:45;;;;;;;1.40;1.40;;;;;;;-1.85;81.30;96551.75;4984551;28;20048;-73
2024/01/16 06:51:14;;;;;;;0.13;0.13;;;;;;;-1.83;81.03;96553.41;4980999;28;20449;-72
2024/01/16 06:53:41;;;;;;;0.22;0.22;;;;;;;-1.95;81.32;96553.56;4976770;28;20042;-73
2024/01/16 06:56:09;;;;;;;1.10;1.10;;;;;;;-1.96;81.54;96551.91;4976146;28;20050;-73
2024/01/16 06:58:37;;;;;;;1.00;1.00;;;;;;;-1.96;81.64;96562.38;4972822;28;20039;-73
2024/01/16 07:01:05;;;;;;;0.85;0.85;;;;;;;-1.99;82.07;96552.22;4969599;28;20050;-73
2024/01/16 07:03:33;;;;;;;1.17;1.17;;;;;;;-1.94;82.05;96564.84;4978436;28;20042;-73
2024/01/16 07:06:01;;;;;;;1.05;1.05;;;;;;;-2.03;82.46;96570.94;4974933;28;20042;-73
2024/01/16 07:08:29;;;;;;;1.10;1.10;;;;;;;-2.09;83.07;96577.56;4981015;28;20482;-73
2024/01/16 07:10:57;;;;;;;0.90;0.90;;;;;;;-2.05;83.48;96573.69;4976701;28;20175;-73
2024/01/16 07:13:24;;;;;;;1.05;1.05;;;;;;;-2.04;83.55;96575.34;4979227;28;20038;-73
2024/01/16 07:15:52;;;;;;;0.85;0.85;;;;;;;-1.98;83.45;96580.03;4983376;28;20053;-73
2024/01/16 07:18:21;;;;;;;0.55;0.55;;;;;;;-1.82;82.76;96574.16;4969710;28;20463;-73
2024/01/16 07:20:49;;;;;;;1.08;1.08;;;;;;;-1.88;82.44;96580.81;4970365;28;20092;-73
2024/01/16 07:23:17;;;;;;;0.75;0.75;;;;;;;-1.91;82.66;96582.88;4973275;28;20296;-73
2024/01/16 07:25:44;;;;;;;1.33;1.33;;;;;;;-1.94;82.20;96578.75;4976144;28;20039;-73
2024/01/16 07:28:12;;;;;;;1.08;1.08;;;;;;;-1.92;82.06;96592.50;4972273;28;20060;-73
2024/01/16 07:30:40;;;;;;;0.20;0.20;;;;;;;-1.96;82.27;96583.28;4975971;28;20046;-73
2024/01/16 07:33:08;;;;;;;1.02;1.02;;;;;;;-1.95;82.34;96587.56;4976773;28;20046;-73
2024/01/16 07:35:37;;;;;;;0.43;0.43;;;;;;;-1.90;81.56;96594.97;4957637;28;20429;-73
2024/01/16 07:38:05;;;;;;;1.27;1.27;;;;;;;-1.95;81.53;96589.34;4973872;28;20459;-73
2024/01/16 07:40:32;;;;;;;1.08;1.08;;;;;;;-2.03;81.72;96584.00;4973046;28;20050;-73
2024/01/16 07:43:00;;;;;;;0.35;0.35;;;;;;;-2.07;82.10;96587.84;4972304;28;20050;-73
2024/01/16 07:45:27;;;;;;;1.17;1.17;;;;;;;-2.06;81.69;96584.28;4974708;28;20046;-73
2024/01/16 07:47:55;;;;;;;0.30;0.30;;;;;;;-2.10;81.51;96575.91;4975982;28;20046;-73
2024/01/16 07:50:23;;;;;;;1.00;1.00;;;;;;;-2.09;81.21;96579.38;4979234;28;20125;-73
2024/01/16 07:52:52;;;;;;;1.17;1.17;;;;;;;-2.09;81.28;96582.81;4960135;28;20043;-73
2024/01/16 07:55:19;;;;;;;1.23;1.23;;;;;;;-2.07;80.62;96591.31;4972303;28;20057;-73
2024/01/16 07:57:51;;;;;;;1.15;1.15;;;;;;;-2.07;80.81;96596.53;4983867;28;20042;-73
2024/01/16 08:00:19;;;;;;;0.88;0.88;;;;;;;-2.04;80.52;96585.78;4979184;28;20058;-73
2024/01/16 08:02:47;;;;;;;1.17;1.17;;;;;;;-2.01;80.25;96597.75;4975763;28;20046;-74
2024/01/16 08:05:15;;;;;;;0.32;0.32;;;;;;;-2.01;80.09;96595.97;4982919;28;20398;-73
2024/01/16 08:07:43;;;;;;;1.23;1.23;;;;;;;-1.95;80.03;96607.66;4975393;28;20048;-74
2024/01/16 08:10:12;;;;;;;1.35;1.35;;;;;;;-1.91;80.00;96604.63;4984015;28;20038;-74
2024/01/16 08:12:43;;;;;;;1.00;1.00;;;;;;;-1.87;79.97;96605.16;4978696;28;20046;-74
2024/01/16 08:15:10;;;;;;;0.95;0.95;;;;;;;-1.83;79.42;96611.75;4985407;28;20133;-74
2024/01/16 08:17:39;;;;;;;0.80;0.80;;;;;;;-1.80;79.82;96610.63;4982577;28;20085;-74
2024/01/16 08:20:09;;;;;;;0.90;0.90;;;;;;;-1.76;79.12;96614.59;4977852;28;20039;-74
2024/01/16 08:22:37;;;;;;;1.33;1.33;;;;;;;-1.74;79.32;96618.72;4979450;28;20095;-74
2024/01/16 08:25:05;;;;;;;1.23;1.23;;;;;;;-1.62;79.07;96622.00;4970223;28;20047;-74
2024/01/16 08:27:34;;;;;;;2.15;2.13;;;;;;;-1.62;79.08;96622.00;4977361;28;20053;-74
2024/01/16 08:30:02;;;;;;;1.08;1.08;;;;;;;-1.60;78.96;96612.22;4978418;28;20512;-74
2024/01/16 08:32:31;;;;;;;1.15;1.15;;;;;;;-1.58;78.42;96615.53;4977308;28;20039;-74
2024/01/16 08:34:58;;;;;;;0.70;0.70;;;;;;;-1.60;78.73;96612.22;4971333;28;20046;-73
2024/01/16 08:37:26;;;;;;;0.85;0.85;;;;;;;-1.55;78.91;96623.06;4976551;28;20109;-73
2024/01/16 08:39:54;;;;;;;0.75;0.75;;;;;;;-1.52;78.87;96620.97;4972003;28;20061;-74
2024/01/16 08:42:21;;;;;;;0.98;0.98;;;;;;;-1.51;78.21;96609.56;4971723;28;20053;-74
2024/01/16 08:44:50;;;;;;;1.00;1.00;;;;;;;-1.48;78.68;96624.97;4979186;28;20049;-74
2024/01/16 08:47:19;;;;;;;1.13;1.13;;;;;;;-1.43;78.29;96616.69;4985949;28;20093;-74
2024/01/16 08:49:46;;;;;;;0.90;0.90;;;;;;;-1.37;78.35;96618.72;4978224;28;20042;-74
2024/01/16 08:52:15;;;;;;;1.48;1.48;;;;;;;-1.34;78.52;96626.28;4984766;28;20053;-74
2024/01/16 08:54:43;;;;;;;1.00;1.00;;;;;;;-1.29;77.81;96629.28;4984188;28;20054;-74
2024/01/16 08:57:10;;;;;;;1.33;1.33;;;;;;;-1.26;77.58;96630.81;4978703;28;20042;-75
2024/01/16 08:59:41;;;;;;;0.30;0.30;;;;;;;-1.25;77.53;96622.81;4981675;28;20490;-73
2024/01/16 09:02:10;;;;;;;0.95;0.95;;;;;;;-1.23;77.72;96630.50;4971701;28;20046;-73
2024/01/16 09:04:38;;;;;;;1.67;1.67;;;;;;;-1.15;77.39;96636.66;4982562;28;20097;-74
2024/01/16 09:07:06;;;;;;;1.30;1.30;;;;;;;-1.02;77.22;96641.53;4992116;28;20058;-75
2024/01/16 09:09:34;;;;;;;1.23;1.23;;;;;;;-1.12;76.43;96641.59;4975029;28;20039;-74
2024/01/16 09:12:04;;;;;;;0.85;0.85;;;;;;;-1.12;76.71;96649.44;4973994;28;20058;-74
2024/01/16 09:14:31;;;;;;;1.02;1.02;;;;;;;-1.11;76.46;96648.47;4975914;28;20043;-73
2024/01/16 09:16:59;;;;;;;1.20;1.20;;;;;;;-1.06;76.34;96640.19;4979385;28;20066;-73
2024/01/16 09:19:28;;;;;;;1.08;1.08;;;;;;;-0.99;75.81;96648.28;4977771;28;20170;-73
2024/01/16 09:21:56;;;;;;;1.00;1.00;;;;;;;-0.98;75.46;96647.31;4969368;28;20047;-74
2024/01/16 09:24:23;;;;;;;0.85;0.85;;;;;;;-0.95;75.43;96650.47;4978203;28;20049;-74
2024/01/16 09:26:51;;;;;;;1.15;1.15;;;;;;;-0.85;75.73;96653.03;4974586;28;20050;-73
2024/01/16 09:29:19;;;;;;;0.75;0.75;;;;;;;-0.81;74.77;96651.75;4977093;28;20487;-74
2024/01/16 09:31:48;;;;;;;0.82;0.82;;;;;;;-0.71;75.28;96651.69;4975157;28;20059;-73
2024/01/16 09:34:17;;;;;;;0.90;0.90;;;;;;;-0.70;74.73;96653.34;4969959;28;20054;-73
2024/01/16 09:36:46;;;;;;;1.73;1.73;;;;;;;-0.68;74.64;96659.25;4975332;28;20034;-74
2024/01/16 09:39:14;;;;;;;1.00;1.00;;;;;;;-0.63;74.33;96649.16;4974492;28;20066;-74
2024/01/16 09:41:45;;;;;;;0.95;0.95;;;;;;;-0.61;74.08;96639.34;4979218;28;20078;-74
2024/01/16 09:44:14;;;;;;;1.35;1.35;;;;;;;-0.59;74.44;96648.69;4981769;28;20084;-75
2024/01/16 09:46:46;;;;;;;1.20;1.20;;;;;;;-0.54;74.38;96651.72;4983283;28;20066;-75
2024/01/16 09:49:15;;;;;;;1.17;1.17;;;;;;;-0.58;73.48;96652.97;4972046;28;20038;-74
2024/01/16 09:51:43;;;;;;;0.30;0.30;;;;;;;-0.61;73.99;96650.63;4975544;28;20611;-74
2024/01/16 09:54:12;;;;;;;0.20;0.20;;;;;;;-0.55;74.49;96657.91;4968981;28;20050;-75
2024/01/16 09:56:43;;;;;;;0.98;0.98;;;;;;;-0.49;74.62;96659.09;4974598;28;20050;-75
2024/01/16 09:59:13;;;;;;;0.85;0.85;;;;;;;-0.58;74.63;96642.50;4982223;28;20050;-73
2024/01/16 10:01:42;;;;;;;0.90;0.90;;;;;;;-0.61;74.84;96649.81;4977391;28;20128;-74
2024/01/16 10:04:09;;;;;;;1.67;1.67;;;;;;;-0.63;74.43;96650.00;4977181;28;20045;-74
2024/01/16 10:06:39;;;;;;;1.63;1.63;;;;;;;-0.67;75.01;96653.88;4972368;28;20043;-75
2024/01/16 10:09:07;;;;;;;1.10;1.10;;;;;;;-0.64;74.96;96642.28;4971653;28;20495;-74
2024/01/16 10:11:36;;;;;;;1.00;1.00;;;;;;;-0.62;75.14;96640.34;4972544;28;20126;-75
2024/01/16 10:14:04;;;;;;;0.85;0.85;;;;;;;-0.60;74.92;96644.44;4974313;28;20058;-75
2024/01/16 10:16:58;;;;;;;1.17;1.17;;;;;;;-0.50;74.73;96646.97;4967022;28;20478;-74
2024/01/16 10:19:28;;;;;;;0.70;0.70;;;;;;;-0.49;74.43;96648.63;4973373;28;20518;-74
2024/01/16 10:22:12;;;;;;;1.60;1.60;;;;;;;-0.43;74.33;96648.88;4980051;28;20149;-74
2024/01/16 10:24:41;;;;;;;1.05;1.05;;;;;;;-0.43;73.45;96646.25;4979539;28;20062;-74
2024/01/16 10:27:10;;;;;;;0.95;0.95;;;;;;;-0.51;72.96;96646.16;4973186;28;20098;-74
2024/01/16 10:29:38;;;;;;;0.30;0.30;;;;;;;-0.49;72.62;96644.22;4973749;28;20434;-74
2024/01/16 10:32:28;;;;;;;1.27;1.27;;;;;;;-0.44;72.85;96641.97;4971459;28;20043;-74
2024/01/16 10:35:04;;;;;;;1.02;1.02;;;;;;;-0.43;72.32;96642.81;4983723;28;20045;-74
2024/01/16 10:37:32;;;;;;;1.10;1.10;;;;;;;-0.42;72.51;96637.41;4969475;28;20042;-74
2024/01/16 10:40:00;;;;;;;1.42;1.42;;;;;;;-0.42;72.22;96637.41;4980611;28;20525;-74
2024/01/16 10:42:29;;;;;;;1.27;1.27;;;;;;;-0.35;72.28;96632.38;4973594;28;20043;-74
2024/01/16 10:44:57;;;;;;;2.15;2.15;;;;;;;-0.34;71.66;96634.03;4990581;28;20038;-74
2024/01/16 10:47:24;;;;;;;0.98;0.98;;;;;;;-0.22;72.16;96634.63;4981312;28;20046;-74
2024/01/16 10:49:53;;;;;;;0.95;0.95;;;;;;;-0.22;71.45;96639.88;4979346;28;20101;-74
2024/01/16 10:52:24;;;;;;;1.02;1.02;;;;;;;-0.22;71.74;96634.63;4977484;28;20569;-75
2024/01/16 10:54:52;;;;;;;0.75;0.75;;;;;;;-0.25;71.95;96640.16;4975481;28;20039;-73
2024/01/16 10:57:19;;;;;;;1.08;1.08;;;;;;;-0.24;71.71;96634.78;4983016;28;20046;-74
2024/01/16 10:59:51;;;;;;;0.65;0.65;;;;;;;-0.28;71.87;96629.97;4976839;28;20039;-74
2024/01/16 11:02:22;;;;;;;0.75;0.75;;;;;;;-0.21;71.99;96631.03;4972486;28;20047;-73
2024/01/16 11:04:50;;;;;;;0.75;0.75;;;;;;;-0.12;71.59;96635.38;4970059;28;20494;-74
2024/01/16 11:07:18;;;;;;;0.75;0.75;;;;;;;-0.16;71.59;96634.00;4989636;28;20061;-74
2024/01/16 11:09:46;;;;;;;1.27;1.27;;;;;;;-0.07;71.50;96633.09;4988407;28;20117;-74
2024/01/16 11:12:16;;;;;;;1.02;1.02;;;;;;;0.05;71.59;96641.53;4980240;28;20050;-74
2024/01/16 11:14:45;;;;;;;1.05;1.05;;;;;;;-0.05;71.19;96636.41;4972025;28;20049;-74
2024/01/16 11:17:18;;;;;;;0.40;0.40;;;;;;;0.02;70.85;96634.78;4975594;28;20367;-74
2024/01/16 11:19:47;;;;;;;1.33;1.33;;;;;;;-0.03;71.03;96632.66;4977201;28;20498;-74
2024/01/16 11:22:37;;;;;;;0.52;0.52;;;;;;;0.08;70.73;96643.88;4975803;28;20451;-72
2024/01/16 11:25:09;;;;;;;1.20;1.20;;;;;;;0.13;69.81;96642.41;4982448;28;20045;-73
2024/01/16 11:27:37;;;;;;;0.43;0.43;;;;;;;0.05;69.66;96642.38;5005811;23;20329;-71
2024/01/16 11:30:06;;;;;;;0.30;0.30;;;;;;;0.09;69.39;96651.59;4971582;28;20449;-71
2024/01/16 11:32:37;;;;;;;0.95;0.95;;;;;;;0.12;68.87;96648.63;4975106;28;20046;-70
2024/01/16 11:35:07;;;;;;;0.88;0.88;;;;;;;0.17;69.12;96619.34;4956844;28;20568;-72
2024/01/16 11:37:37;;;;;;;0.20;0.20;;;;;;;0.04;69.16;96629.41;4978351;28;20043;-71
2024/01/16 11:40:26;;;;;;;1.08;1.08;;;;;;;0.07;70.07;96629.94;4980537;28;20545;-71